sensor_id;sensor_type;location;lat;lon;timestamp;pressure;altitude;pressure_sealevel;temperature;humidity
71105;BME280;58760;48.716;8.962;2023-02-14T00:01:56;98233.16;;;-0.05;96.61
71105;BME280;58760;48.716;8.962;2023-02-14T00:04:21;98226.09;;;-0.03;96.85
71105;BME280;58760;48.716;8.962;2023-02-14T00:06:47;98221.00;;;-0.06;96.90
71105;BME280;58760;48.716;8.962;2023-02-14T00:09:14;98230.00;;;-0.13;97.01
71105;BME280;58760;48.716;8.962;2023-02-14T00:11:40;98226.91;;;-0.21;96.81
71105;BME280;58760;48.716;8.962;2023-02-14T00:14:06;98227.16;;;-0.27;96.74
71105;BME280;58760;48.716;8.962;2023-02-14T00:16:50;98237.72;;;-0.30;96.94
71105;BME280;58760;48.716;8.962;2023-02-14T00:19:18;98228.63;;;-0.41;97.05
71105;BME280;58760;48.716;8.962;2023-02-14T00:21:44;98228.59;;;-0.40;97.53
71105;BME280;58760;48.716;8.962;2023-02-14T00:24:30;98225.97;;;-0.40;97.51
71105;BME280;58760;48.716;8.962;2023-02-14T00:26:55;98223.41;;;-0.41;97.71
71105;BME280;58760;48.716;8.962;2023-02-14T00:29:26;98224.53;;;-0.47;97.80
71105;BME280;58760;48.716;8.962;2023-02-14T00:31:51;98221.78;;;-0.44;97.77
71105;BME280;58760;48.716;8.962;2023-02-14T00:34:18;98223.63;;;-0.46;97.94
71105;BME280;58760;48.716;8.962;2023-02-14T00:36:44;98218.47;;;-0.47;97.98
71105;BME280;58760;48.716;8.962;2023-02-14T00:39:12;98207.06;;;-0.45;98.25
71105;BME280;58760;48.716;8.962;2023-02-14T00:41:38;98209.66;;;-0.45;98.14
71105;BME280;58760;48.716;8.962;2023-02-14T00:44:05;98207.19;;;-0.48;98.17
71105;BME280;58760;48.716;8.962;2023-02-14T00:46:30;98210.81;;;-0.52;98.28
71105;BME280;58760;48.716;8.962;2023-02-14T00:48:56;98216.03;;;-0.52;98.41
71105;BME280;58760;48.716;8.962;2023-02-14T00:51:22;98211.50;;;-0.47;98.38
71105;BME280;58760;48.716;8.962;2023-02-14T00:53:49;98213.06;;;-0.43;98.56
71105;BME280;58760;48.716;8.962;2023-02-14T00:56:15;98209.53;;;-0.42;98.60
71105;BME280;58760;48.716;8.962;2023-02-14T00:58:41;98212.47;;;-0.49;98.46
71105;BME280;58760;48.716;8.962;2023-02-14T01:01:07;98224.78;;;-0.53;98.59
71105;BME280;58760;48.716;8.962;2023-02-14T01:03:33;98216.72;;;-0.47;98.54
71105;BME280;58760;48.716;8.962;2023-02-14T01:05:59;98218.28;;;-0.43;98.48
71105;BME280;58760;48.716;8.962;2023-02-14T01:08:25;98218.53;;;-0.49;98.46
71105;BME280;58760;48.716;8.962;2023-02-14T01:10:50;98219.31;;;-0.47;98.33
71105;BME280;58760;48.716;8.962;2023-02-14T01:13:16;98220.34;;;-0.51;98.37
71105;BME280;58760;48.716;8.962;2023-02-14T01:15:44;98230.00;;;-0.53;98.41
71105;BME280;58760;48.716;8.962;2023-02-14T01:18:11;98228.56;;;-0.60;98.46
71105;BME280;58760;48.716;8.962;2023-02-14T01:20:36;98227.69;;;-0.61;98.71
71105;BME280;58760;48.716;8.962;2023-02-14T01:23:02;98233.78;;;-0.60;98.79
71105;BME280;58760;48.716;8.962;2023-02-14T01:25:28;98230.44;;;-0.64;98.80
71105;BME280;58760;48.716;8.962;2023-02-14T01:27:54;98234.16;;;-0.69;98.85
71105;BME280;58760;48.716;8.962;2023-02-14T01:30:19;98230.09;;;-0.76;99.06
71105;BME280;58760;48.716;8.962;2023-02-14T01:32:46;98229.53;;;-0.84;99.18
71105;BME280;58760;48.716;8.962;2023-02-14T01:35:11;98229.53;;;-0.84;99.56
71105;BME280;58760;48.716;8.962;2023-02-14T01:37:37;98236.69;;;-0.89;99.45
71105;BME280;58760;48.716;8.962;2023-02-14T01:40:04;98224.69;;;-0.93;99.57
71105;BME280;58760;48.716;8.962;2023-02-14T01:42:32;98223.34;;;-1.03;99.66
71105;BME280;58760;48.716;8.962;2023-02-14T01:45:05;98223.47;;;-1.07;99.79
71105;BME280;58760;48.716;8.962;2023-02-14T01:47:34;98226.16;;;-1.08;100.00
71105;BME280;58760;48.716;8.962;2023-02-14T01:50:09;98225.22;;;-1.07;100.00
71105;BME280;58760;48.716;8.962;2023-02-14T01:52:45;98232.34;;;-0.89;100.00
71105;BME280;58760;48.716;8.962;2023-02-14T01:55:15;98227.38;;;-0.95;100.00
71105;BME280;58760;48.716;8.962;2023-02-14T01:58:00;98221.81;;;-1.08;99.90
71105;BME280;58760;48.716;8.962;2023-02-14T02:00:27;98230.63;;;-1.12;99.90
71105;BME280;58760;48.716;8.962;2023-02-14T02:03:12;98231.53;;;-1.13;99.99
71105;BME280;58760;48.716;8.962;2023-02-14T02:05:44;98220.09;;;-1.09;100.00
71105;BME280;58760;48.716;8.962;2023-02-14T02:08:10;98226.66;;;-0.98;99.46
71105;BME280;58760;48.716;8.962;2023-02-14T02:10:36;98227.31;;;-1.15;99.14
71105;BME280;58760;48.716;8.962;2023-02-14T02:13:06;98229.28;;;-1.22;99.27
71105;BME280;58760;48.716;8.962;2023-02-14T02:15:45;98229.63;;;-1.08;98.98
71105;BME280;58760;48.716;8.962;2023-02-14T02:21:23;98235.88;;;-1.35;99.05
71105;BME280;58760;48.716;8.962;2023-02-14T02:38:01;98207.25;;;-1.35;99.80
71105;BME280;58760;48.716;8.962;2023-02-14T02:46:02;98214.66;;;-1.24;99.56
71105;BME280;58760;48.716;8.962;2023-02-14T02:49:13;98212.16;;;-1.27;99.90
71105;BME280;58760;48.716;8.962;2023-02-14T02:52:01;98215.09;;;-1.36;99.87
71105;BME280;58760;48.716;8.962;2023-02-14T02:54:55;98213.41;;;-1.37;99.94
71105;BME280;58760;48.716;8.962;2023-02-14T02:57:28;98215.31;;;-1.42;100.00
71105;BME280;58760;48.716;8.962;2023-02-14T02:59:57;98211.72;;;-1.38;100.00
71105;BME280;58760;48.716;8.962;2023-02-14T03:02:42;98210.06;;;-1.41;100.00
71105;BME280;58760;48.716;8.962;2023-02-14T03:05:28;98212.00;;;-1.46;100.00
71105;BME280;58760;48.716;8.962;2023-02-14T03:07:54;98204.41;;;-1.52;100.00
71105;BME280;58760;48.716;8.962;2023-02-14T03:10:24;98209.84;;;-1.58;100.00
71105;BME280;58760;48.716;8.962;2023-02-14T03:15:40;98204.88;;;-1.64;100.00
71105;BME280;58760;48.716;8.962;2023-02-14T03:23:40;98207.53;;;-1.42;100.00
71105;BME280;58760;48.716;8.962;2023-02-14T03:31:29;98205.28;;;-1.30;99.15
71105;BME280;58760;48.716;8.962;2023-02-14T03:36:55;98212.81;;;-1.44;99.17
71105;BME280;58760;48.716;8.962;2023-02-14T03:39:26;98213.03;;;-1.50;99.33
71105;BME280;58760;48.716;8.962;2023-02-14T03:42:00;98212.41;;;-1.56;99.29
71105;BME280;58760;48.716;8.962;2023-02-14T03:44:30;98214.56;;;-1.68;99.39
71105;BME280;58760;48.716;8.962;2023-02-14T03:47:11;98211.22;;;-1.71;99.59
71105;BME280;58760;48.716;8.962;2023-02-14T03:49:42;98223.34;;;-1.70;99.73
71105;BME280;58760;48.716;8.962;2023-02-14T03:52:09;98222.47;;;-1.71;99.78
71105;BME280;58760;48.716;8.962;2023-02-14T03:54:36;98214.63;;;-1.69;100.00
71105;BME280;58760;48.716;8.962;2023-02-14T03:57:29;98212.97;;;-1.72;100.00
71105;BME280;58760;48.716;8.962;2023-02-14T03:59:56;98211.56;;;-1.57;100.00
71105;BME280;58760;48.716;8.962;2023-02-14T04:02:33;98206.59;;;-1.63;99.64
71105;BME280;58760;48.716;8.962;2023-02-14T04:05:02;98208.72;;;-1.74;99.41
71105;BME280;58760;48.716;8.962;2023-02-14T04:07:30;98211.50;;;-1.79;99.37
71105;BME280;58760;48.716;8.962;2023-02-14T04:09:56;98205.56;;;-1.82;99.39
71105;BME280;58760;48.716;8.962;2023-02-14T04:12:21;98208.22;;;-1.84;99.43
71105;BME280;58760;48.716;8.962;2023-02-14T04:14:46;98206.50;;;-1.85;99.44
71105;BME280;58760;48.716;8.962;2023-02-14T04:17:12;98209.41;;;-1.92;99.37
71105;BME280;58760;48.716;8.962;2023-02-14T04:19:56;98207.59;;;-1.90;99.61
71105;BME280;58760;48.716;8.962;2023-02-14T04:22:21;98206.69;;;-1.89;99.74
71105;BME280;58760;48.716;8.962;2023-02-14T04:24:47;98205.09;;;-1.93;99.76
71105;BME280;58760;48.716;8.962;2023-02-14T04:27:12;98207.72;;;-1.93;99.98
71105;BME280;58760;48.716;8.962;2023-02-14T04:29:40;98206.81;;;-1.92;99.95
71105;BME280;58760;48.716;8.962;2023-02-14T04:32:13;98204.31;;;-1.95;100.00
71105;BME280;58760;48.716;8.962;2023-02-14T04:34:39;98200.88;;;-1.96;100.00
71105;BME280;58760;48.716;8.962;2023-02-14T04:37:05;98203.50;;;-1.97;100.00
71105;BME280;58760;48.716;8.962;2023-02-14T04:39:30;98195.09;;;-2.04;100.00
71105;BME280;58760;48.716;8.962;2023-02-14T04:41:56;98196.63;;;-1.98;100.00
71105;BME280;58760;48.716;8.962;2023-02-14T04:44:21;98203.50;;;-1.97;100.00
71105;BME280;58760;48.716;8.962;2023-02-14T04:46:47;98200.91;;;-1.97;100.00
71105;BME280;58760;48.716;8.962;2023-02-14T04:49:12;98191.47;;;-2.00;100.00
71105;BME280;58760;48.716;8.962;2023-02-14T04:51:38;98189.78;;;-2.01;100.00
71105;BME280;58760;48.716;8.962;2023-02-14T04:54:03;98186.22;;;-1.98;100.00
71105;BME280;58760;48.716;8.962;2023-02-14T04:56:28;98194.69;;;-1.93;100.00
71105;BME280;58760;48.716;8.962;2023-02-14T04:58:54;98193.69;;;-1.89;100.00
71105;BME280;58760;48.716;8.962;2023-02-14T05:01:20;98198.03;;;-1.90;100.00
71105;BME280;58760;48.716;8.962;2023-02-14T05:03:45;98190.41;;;-1.94;100.00
71105;BME280;58760;48.716;8.962;2023-02-14T05:06:10;98198.31;;;-1.97;100.00
71105;BME280;58760;48.716;8.962;2023-02-14T05:08:36;98193.41;;;-2.05;99.54
71105;BME280;58760;48.716;8.962;2023-02-14T05:11:01;98191.94;;;-1.89;99.35
71105;BME280;58760;48.716;8.962;2023-02-14T05:13:26;98180.44;;;-2.06;98.34
71105;BME280;58760;48.716;8.962;2023-02-14T05:15:53;98183.50;;;-2.19;98.11
71105;BME280;58760;48.716;8.962;2023-02-14T05:18:18;98187.06;;;-2.21;98.06
71105;BME280;58760;48.716;8.962;2023-02-14T05:20:44;98186.13;;;-2.20;98.21
71105;BME280;58760;48.716;8.962;2023-02-14T05:23:09;98192.19;;;-2.20;98.47
71105;BME280;58760;48.716;8.962;2023-02-14T05:25:41;98195.78;;;-2.24;98.60
71105;BME280;58760;48.716;8.962;2023-02-14T05:28:07;98202.53;;;-2.18;98.63
71105;BME280;58760;48.716;8.962;2023-02-14T05:30:32;98195.41;;;-2.13;98.63
71105;BME280;58760;48.716;8.962;2023-02-14T05:32:59;98197.22;;;-2.15;98.62
71105;BME280;58760;48.716;8.962;2023-02-14T05:35:24;98196.38;;;-2.16;98.68
71105;BME280;58760;48.716;8.962;2023-02-14T05:37:50;98200.25;;;-2.27;98.44
71105;BME280;58760;48.716;8.962;2023-02-14T05:40:15;98198.81;;;-2.36;98.18
71105;BME280;58760;48.716;8.962;2023-02-14T05:42:41;98202.06;;;-2.54;97.58
71105;BME280;58760;48.716;8.962;2023-02-14T05:45:07;98209.88;;;-2.55;97.61
71105;BME280;58760;48.716;8.962;2023-02-14T05:47:33;98217.03;;;-2.62;97.33
71105;BME280;58760;48.716;8.962;2023-02-14T05:49:58;98219.78;;;-2.67;96.92
71105;BME280;58760;48.716;8.962;2023-02-14T05:52:24;98213.09;;;-2.74;95.96
71105;BME280;58760;48.716;8.962;2023-02-14T05:54:49;98218.69;;;-2.86;96.13
71105;BME280;58760;48.716;8.962;2023-02-14T05:57:15;98211.06;;;-2.90;96.00
71105;BME280;58760;48.716;8.962;2023-02-14T05:59:40;98217.25;;;-2.94;96.14
71105;BME280;58760;48.716;8.962;2023-02-14T06:02:06;98218.53;;;-2.81;96.77
71105;BME280;58760;48.716;8.962;2023-02-14T06:04:31;98218.09;;;-2.68;97.53
71105;BME280;58760;48.716;8.962;2023-02-14T06:06:57;98216.03;;;-2.58;98.05
71105;BME280;58760;48.716;8.962;2023-02-14T06:09:22;98216.91;;;-2.57;98.20
71105;BME280;58760;48.716;8.962;2023-02-14T06:11:47;98215.34;;;-2.63;98.18
71105;BME280;58760;48.716;8.962;2023-02-14T06:14:13;98215.22;;;-2.60;98.38
71105;BME280;58760;48.716;8.962;2023-02-14T06:16:38;98208.19;;;-2.56;98.51
71105;BME280;58760;48.716;8.962;2023-02-14T06:19:03;98205.59;;;-2.56;98.72
71105;BME280;58760;48.716;8.962;2023-02-14T06:21:29;98212.44;;;-2.54;98.89
71105;BME280;58760;48.716;8.962;2023-02-14T06:23:54;98213.97;;;-2.48;99.06
71105;BME280;58760;48.716;8.962;2023-02-14T06:26:19;98211.84;;;-2.37;99.07
71105;BME280;58760;48.716;8.962;2023-02-14T06:28:45;98218.19;;;-2.44;99.00
71105;BME280;58760;48.716;8.962;2023-02-14T06:31:15;98219.94;;;-2.45;99.06
71105;BME280;58760;48.716;8.962;2023-02-14T06:33:40;98224.16;;;-2.42;99.05
71105;BME280;58760;48.716;8.962;2023-02-14T06:36:06;98225.03;;;-2.42;99.13
71105;BME280;58760;48.716;8.962;2023-02-14T06:38:31;98230.97;;;-2.38;99.30
71105;BME280;58760;48.716;8.962;2023-02-14T06:41:02;98238.56;;;-2.32;99.45
71105;BME280;58760;48.716;8.962;2023-02-14T06:43:28;98229.75;;;-2.28;99.54
71105;BME280;58760;48.716;8.962;2023-02-14T06:45:53;98235.00;;;-2.30;99.44
71105;BME280;58760;48.716;8.962;2023-02-14T06:48:18;98238.41;;;-2.28;99.39
71105;BME280;58760;48.716;8.962;2023-02-14T06:50:45;98229.31;;;-2.41;99.22
71105;BME280;58760;48.716;8.962;2023-02-14T06:53:11;98230.00;;;-2.36;98.75
71105;BME280;58760;48.716;8.962;2023-02-14T06:55:36;98229.03;;;-2.33;98.59
71105;BME280;58760;48.716;8.962;2023-02-14T06:58:02;98224.81;;;-2.36;98.45
71105;BME280;58760;48.716;8.962;2023-02-14T07:00:27;98225.59;;;-2.34;98.13
71105;BME280;58760;48.716;8.962;2023-02-14T07:02:52;98234.09;;;-2.29;98.14
71105;BME280;58760;48.716;8.962;2023-02-14T07:05:18;98222.63;;;-2.23;98.05
71105;BME280;58760;48.716;8.962;2023-02-14T07:07:43;98224.91;;;-2.14;98.12
71105;BME280;58760;48.716;8.962;2023-02-14T07:10:09;98228.09;;;-2.06;98.17
71105;BME280;58760;48.716;8.962;2023-02-14T07:12:34;98222.31;;;-1.89;98.25
71105;BME280;58760;48.716;8.962;2023-02-14T07:15:00;98222.94;;;-1.83;97.80
71105;BME280;58760;48.716;8.962;2023-02-14T07:17:25;98217.88;;;-1.87;97.25
71105;BME280;58760;48.716;8.962;2023-02-14T07:19:51;98211.44;;;-1.77;97.36
71105;BME280;58760;48.716;8.962;2023-02-14T07:22:16;98209.94;;;-1.60;97.28
71105;BME280;58760;48.716;8.962;2023-02-14T07:24:41;98216.78;;;-1.57;96.87
71105;BME280;58760;48.716;8.962;2023-02-14T07:27:07;98211.09;;;-1.45;96.72
71105;BME280;58760;48.716;8.962;2023-02-14T07:29:32;98211.34;;;-1.29;96.79
71105;BME280;58760;48.716;8.962;2023-02-14T07:31:57;98212.34;;;-1.10;96.25
71105;BME280;58760;48.716;8.962;2023-02-14T07:34:23;98207.94;;;-1.08;95.64
71105;BME280;58760;48.716;8.962;2023-02-14T07:36:48;98207.25;;;-0.91;95.37
71105;BME280;58760;48.716;8.962;2023-02-14T07:39:13;98210.41;;;-0.83;95.42
71105;BME280;58760;48.716;8.962;2023-02-14T07:41:39;98206.47;;;-0.72;95.63
71105;BME280;58760;48.716;8.962;2023-02-14T07:44:04;98208.34;;;-0.55;95.46
71105;BME280;58760;48.716;8.962;2023-02-14T07:46:29;98206.94;;;-0.42;94.91
71105;BME280;58760;48.716;8.962;2023-02-14T07:48:55;98205.25;;;-0.43;94.48
71105;BME280;58760;48.716;8.962;2023-02-14T07:51:20;98205.97;;;-0.39;94.22
71105;BME280;58760;48.716;8.962;2023-02-14T07:53:45;98201.97;;;-0.28;93.80
71105;BME280;58760;48.716;8.962;2023-02-14T07:56:11;98209.50;;;-0.20;93.60
71105;BME280;58760;48.716;8.962;2023-02-14T07:58:36;98208.31;;;-0.13;93.21
71105;BME280;58760;48.716;8.962;2023-02-14T08:01:02;98202.63;;;-0.03;93.41
71105;BME280;58760;48.716;8.962;2023-02-14T08:03:27;98203.28;;;0.03;93.41
71105;BME280;58760;48.716;8.962;2023-02-14T08:05:53;98203.00;;;0.09;93.33
71105;BME280;58760;48.716;8.962;2023-02-14T08:08:29;98199.84;;;0.21;93.73
71105;BME280;58760;48.716;8.962;2023-02-14T08:10:55;98206.41;;;0.29;93.58
71105;BME280;58760;48.716;8.962;2023-02-14T08:13:21;98193.88;;;0.37;92.65
71105;BME280;58760;48.716;8.962;2023-02-14T08:15:46;98197.00;;;0.45;92.40
71105;BME280;58760;48.716;8.962;2023-02-14T08:18:38;98208.44;;;0.62;92.05
71105;BME280;58760;48.716;8.962;2023-02-14T08:21:06;98195.66;;;0.74;92.22
71105;BME280;58760;48.716;8.962;2023-02-14T08:23:32;98191.03;;;0.79;91.68
71105;BME280;58760;48.716;8.962;2023-02-14T08:25:57;98186.59;;;0.81;91.55
71105;BME280;58760;48.716;8.962;2023-02-14T08:28:23;98192.50;;;0.85;91.44
71105;BME280;58760;48.716;8.962;2023-02-14T08:30:49;98191.00;;;0.98;91.90
71105;BME280;58760;48.716;8.962;2023-02-14T08:33:15;98188.34;;;0.99;91.72
71105;BME280;58760;48.716;8.962;2023-02-14T08:35:41;98175.91;;;1.22;91.65
71105;BME280;58760;48.716;8.962;2023-02-14T08:38:06;98179.16;;;1.27;90.96
71105;BME280;58760;48.716;8.962;2023-02-14T08:40:32;98184.88;;;1.52;90.37
71105;BME280;58760;48.716;8.962;2023-02-14T08:42:58;98190.41;;;1.46;90.06
71105;BME280;58760;48.716;8.962;2023-02-14T08:45:23;98184.53;;;1.41;89.98
71105;BME280;58760;48.716;8.962;2023-02-14T08:47:48;98193.78;;;1.48;90.68
71105;BME280;58760;48.716;8.962;2023-02-14T08:50:15;98185.41;;;1.58;90.09
71105;BME280;58760;48.716;8.962;2023-02-14T08:52:42;98185.78;;;1.68;89.94
71105;BME280;58760;48.716;8.962;2023-02-14T08:55:12;98179.34;;;1.75;89.56
71105;BME280;58760;48.716;8.962;2023-02-14T08:57:37;98181.53;;;1.83;89.79
71105;BME280;58760;48.716;8.962;2023-02-14T09:00:04;98185.00;;;1.83;89.37
71105;BME280;58760;48.716;8.962;2023-02-14T09:02:30;98175.91;;;1.90;89.42
71105;BME280;58760;48.716;8.962;2023-02-14T09:04:55;98192.53;;;2.06;90.06
71105;BME280;58760;48.716;8.962;2023-02-14T09:07:20;98176.94;;;2.21;89.90
71105;BME280;58760;48.716;8.962;2023-02-14T09:09:46;98175.84;;;2.25;89.75
71105;BME280;58760;48.716;8.962;2023-02-14T09:12:11;98179.50;;;2.38;89.63
71105;BME280;58760;48.716;8.962;2023-02-14T09:14:39;98181.19;;;2.39;88.81
71105;BME280;58760;48.716;8.962;2023-02-14T09:17:06;98183.31;;;2.48;88.60
71105;BME280;58760;48.716;8.962;2023-02-14T09:19:32;98167.59;;;2.63;88.92
71105;BME280;58760;48.716;8.962;2023-02-14T09:21:58;98171.94;;;2.64;88.93
71105;BME280;58760;48.716;8.962;2023-02-14T09:24:23;98167.13;;;2.73;88.59
71105;BME280;58760;48.716;8.962;2023-02-14T09:26:48;98168.16;;;2.86;88.39
71105;BME280;58760;48.716;8.962;2023-02-14T09:29:14;98161.09;;;3.17;87.86
71105;BME280;58760;48.716;8.962;2023-02-14T09:31:40;98159.19;;;3.20;86.26
71105;BME280;58760;48.716;8.962;2023-02-14T09:34:05;98156.72;;;3.32;85.06
71105;BME280;58760;48.716;8.962;2023-02-14T09:36:49;98162.91;;;3.31;85.37
71105;BME280;58760;48.716;8.962;2023-02-14T09:39:35;98160.00;;;3.36;85.54
71105;BME280;58760;48.716;8.962;2023-02-14T09:42:16;98161.72;;;3.37;84.60
71105;BME280;58760;48.716;8.962;2023-02-14T09:45:00;98154.78;;;3.36;83.68
71105;BME280;58760;48.716;8.962;2023-02-14T09:47:45;98148.97;;;3.45;84.32
71105;BME280;58760;48.716;8.962;2023-02-14T09:50:27;98141.03;;;3.46;83.62
71105;BME280;58760;48.716;8.962;2023-02-14T09:53:01;98149.13;;;3.57;83.78
71105;BME280;58760;48.716;8.962;2023-02-14T09:55:34;98148.19;;;3.58;84.36
71105;BME280;58760;48.716;8.962;2023-02-14T09:58:24;98145.72;;;3.85;80.57
71105;BME280;58760;48.716;8.962;2023-02-14T10:01:01;98150.03;;;3.86;83.00
71105;BME280;58760;48.716;8.962;2023-02-14T10:06:45;98136.19;;;4.12;82.26
71105;BME280;58760;48.716;8.962;2023-02-14T10:11:44;98133.91;;;4.20;82.57
71105;BME280;58760;48.716;8.962;2023-02-14T10:14:15;98136.16;;;4.41;83.01
71105;BME280;58760;48.716;8.962;2023-02-14T10:22:02;98126.56;;;4.54;82.87
71105;BME280;58760;48.716;8.962;2023-02-14T10:25:03;98123.47;;;4.61;81.55
71105;BME280;58760;48.716;8.962;2023-02-14T10:27:34;98125.00;;;4.78;82.67
71105;BME280;58760;48.716;8.962;2023-02-14T10:30:00;98118.53;;;4.84;81.63
71105;BME280;58760;48.716;8.962;2023-02-14T10:32:42;98117.78;;;5.08;80.39
71105;BME280;58760;48.716;8.962;2023-02-14T10:41:09;98111.59;;;5.74;77.35
71105;BME280;58760;48.716;8.962;2023-02-14T10:46:37;98102.66;;;6.02;78.10
71105;BME280;58760;48.716;8.962;2023-02-14T10:49:22;98101.81;;;6.26;76.51
71105;BME280;58760;48.716;8.962;2023-02-14T10:54:41;98091.06;;;6.29;76.06
71105;BME280;58760;48.716;8.962;2023-02-14T10:57:15;98094.81;;;6.51;75.72
71105;BME280;58760;48.716;8.962;2023-02-14T10:59:50;98087.34;;;6.45;74.55
71105;BME280;58760;48.716;8.962;2023-02-14T11:02:20;98083.53;;;6.49;74.67
71105;BME280;58760;48.716;8.962;2023-02-14T11:04:48;98086.25;;;6.60;74.68
71105;BME280;58760;48.716;8.962;2023-02-14T11:07:18;98083.00;;;6.80;74.25
71105;BME280;58760;48.716;8.962;2023-02-14T11:09:44;98073.34;;;7.15;72.98
71105;BME280;58760;48.716;8.962;2023-02-14T11:12:10;98062.00;;;7.26;71.87
71105;BME280;58760;48.716;8.962;2023-02-14T11:14:38;98071.47;;;7.28;71.38
71105;BME280;58760;48.716;8.962;2023-02-14T11:17:26;98063.34;;;7.31;72.29
71105;BME280;58760;48.716;8.962;2023-02-14T11:19:57;98053.91;;;7.51;69.92
71105;BME280;58760;48.716;8.962;2023-02-14T11:22:28;98060.00;;;7.86;68.34
71105;BME280;58760;48.716;8.962;2023-02-14T11:25:05;98055.72;;;7.62;70.73
71105;BME280;58760;48.716;8.962;2023-02-14T11:27:31;98054.81;;;7.85;69.70
71105;BME280;58760;48.716;8.962;2023-02-14T11:29:57;98048.31;;;8.00;70.93
71105;BME280;58760;48.716;8.962;2023-02-14T11:32:24;98045.91;;;8.19;68.55
71105;BME280;58760;48.716;8.962;2023-02-14T11:35:09;98044.50;;;8.15;68.09
71105;BME280;58760;48.716;8.962;2023-02-14T11:37:43;98044.03;;;8.44;68.30
71105;BME280;58760;48.716;8.962;2023-02-14T11:42:54;98025.28;;;8.89;66.31
71105;BME280;58760;48.716;8.962;2023-02-14T11:45:35;98009.97;;;8.93;64.75
71105;BME280;58760;48.716;8.962;2023-02-14T11:50:31;98015.59;;;9.00;65.36
71105;BME280;58760;48.716;8.962;2023-02-14T11:52:56;98010.38;;;9.09;65.20
71105;BME280;58760;48.716;8.962;2023-02-14T11:55:25;98011.25;;;9.51;65.83
71105;BME280;58760;48.716;8.962;2023-02-14T11:57:52;98007.88;;;10.00;64.70
71105;BME280;58760;48.716;8.962;2023-02-14T12:00:19;98001.50;;;10.42;60.22
71105;BME280;58760;48.716;8.962;2023-02-14T12:02:47;98000.31;;;10.66;59.52
71105;BME280;58760;48.716;8.962;2023-02-14T12:05:22;98000.88;;;11.36;57.68
71105;BME280;58760;48.716;8.962;2023-02-14T12:07:53;97995.06;;;13.33;54.23
71105;BME280;58760;48.716;8.962;2023-02-14T12:10:40;97978.72;;;16.88;44.34
71105;BME280;58760;48.716;8.962;2023-02-14T12:26:23;97960.81;;;20.01;35.04
71105;BME280;58760;48.716;8.962;2023-02-14T12:28:57;97950.66;;;21.52;33.36
71105;BME280;58760;48.716;8.962;2023-02-14T12:31:25;97940.22;;;21.23;32.42
71105;BME280;58760;48.716;8.962;2023-02-14T12:33:51;97937.91;;;22.25;31.72
71105;BME280;58760;48.716;8.962;2023-02-14T12:39:45;97930.66;;;21.33;33.30
71105;BME280;58760;48.716;8.962;2023-02-14T12:47:23;97934.63;;;21.97;32.13
71105;BME280;58760;48.716;8.962;2023-02-14T12:55:43;97925.94;;;22.59;30.84
71105;BME280;58760;48.716;8.962;2023-02-14T13:01:18;97916.09;;;22.77;29.76
71105;BME280;58760;48.716;8.962;2023-02-14T13:06:32;97907.63;;;22.54;29.69
71105;BME280;58760;48.716;8.962;2023-02-14T13:11:44;97892.63;;;23.03;29.81
71105;BME280;58760;48.716;8.962;2023-02-14T13:17:16;97898.97;;;22.32;30.46
71105;BME280;58760;48.716;8.962;2023-02-14T13:20:55;97902.13;;;22.80;30.30
71105;BME280;58760;48.716;8.962;2023-02-14T13:22:50;97891.38;;;23.61;28.94
71105;BME280;58760;48.716;8.962;2023-02-14T13:27:45;97885.22;;;23.72;28.35
71105;BME280;58760;48.716;8.962;2023-02-14T13:30:28;97887.19;;;23.83;27.85
71105;BME280;58760;48.716;8.962;2023-02-14T13:32:56;97887.53;;;22.81;29.08
71105;BME280;58760;48.716;8.962;2023-02-14T13:35:27;97874.53;;;23.28;28.98
71105;BME280;58760;48.716;8.962;2023-02-14T13:37:57;97884.44;;;23.65;28.35
71105;BME280;58760;48.716;8.962;2023-02-14T13:40:25;97873.53;;;24.33;28.01
71105;BME280;58760;48.716;8.962;2023-02-14T13:42:59;97879.31;;;24.00;27.50
71105;BME280;58760;48.716;8.962;2023-02-14T13:48:15;97873.66;;;24.02;28.29
71105;BME280;58760;48.716;8.962;2023-02-14T13:50:49;97857.47;;;25.51;25.95
71105;BME280;58760;48.716;8.962;2023-02-14T13:55:53;97856.50;;;26.38;24.30
71105;BME280;58760;48.716;8.962;2023-02-14T13:58:20;97850.63;;;26.18;24.99
71105;BME280;58760;48.716;8.962;2023-02-14T14:00:51;97857.47;;;26.60;24.60
71105;BME280;58760;48.716;8.962;2023-02-14T14:18:47;97850.03;;;25.92;24.48
71105;BME280;58760;48.716;8.962;2023-02-14T14:21:15;97843.16;;;26.25;24.80
71105;BME280;58760;48.716;8.962;2023-02-14T14:24:02;97845.69;;;26.83;23.86
71105;BME280;58760;48.716;8.962;2023-02-14T14:26:35;97852.28;;;27.15;23.14
71105;BME280;58760;48.716;8.962;2023-02-14T14:29:09;97853.63;;;27.96;21.86
71105;BME280;58760;48.716;8.962;2023-02-14T14:31:35;97845.16;;;27.59;22.05
71105;BME280;58760;48.716;8.962;2023-02-14T14:34:01;97842.97;;;27.11;22.67
71105;BME280;58760;48.716;8.962;2023-02-14T14:36:26;97843.50;;;26.68;23.17
71105;BME280;58760;48.716;8.962;2023-02-14T14:38:52;97839.03;;;26.50;23.06
71105;BME280;58760;48.716;8.962;2023-02-14T14:41:24;97842.91;;;25.91;23.77
71105;BME280;58760;48.716;8.962;2023-02-14T14:43:52;97842.53;;;26.11;24.27
71105;BME280;58760;48.716;8.962;2023-02-14T14:46:17;97847.75;;;27.04;22.86
71105;BME280;58760;48.716;8.962;2023-02-14T14:48:46;97835.50;;;27.07;22.32
71105;BME280;58760;48.716;8.962;2023-02-14T14:54:00;97842.25;;;25.08;25.16
71105;BME280;58760;48.716;8.962;2023-02-14T14:59:19;97840.22;;;24.08;25.76
71105;BME280;58760;48.716;8.962;2023-02-14T15:01:51;97854.41;;;19.56;32.24
71105;BME280;58760;48.716;8.962;2023-02-14T15:04:25;97860.56;;;16.90;36.79
71105;BME280;58760;48.716;8.962;2023-02-14T15:06:54;97872.63;;;14.90;42.23
71105;BME280;58760;48.716;8.962;2023-02-14T15:09:23;97863.47;;;14.18;43.89
71105;BME280;58760;48.716;8.962;2023-02-14T15:11:54;97868.19;;;13.23;46.16
71105;BME280;58760;48.716;8.962;2023-02-14T15:14:40;97865.69;;;12.33;49.13
71105;BME280;58760;48.716;8.962;2023-02-14T15:17:18;97868.97;;;12.09;50.10
71105;BME280;58760;48.716;8.962;2023-02-14T15:19:46;97862.84;;;11.62;51.84
71105;BME280;58760;48.716;8.962;2023-02-14T15:24:43;97876.34;;;10.95;54.19
71105;BME280;58760;48.716;8.962;2023-02-14T15:27:14;97869.50;;;10.64;55.06
71105;BME280;58760;48.716;8.962;2023-02-14T15:29:40;97868.13;;;10.50;55.77
71105;BME280;58760;48.716;8.962;2023-02-14T15:32:08;97869.38;;;10.36;56.64